Time;durP1;ratioP1;P1;durP2;ratioP2;P2;SDS_P1;SDS_P2;PMS_P1;PMS_P2;Temp;Humidity;BMP_temperature;BMP_pressure;BME280_temperature;BME280_humidity;BME280_pressure;Samples;Min_cycle;Max_cycle;Signal;HPM_P1;HPM_P2
2021/09/03 00:02:07;;;;;;;22.03;16.67;;;14.80;99.90;;;;;;5010366;28;20445;-52
2021/09/03 00:04:33;;;;;;;20.60;16.30;;;15.00;99.90;;;;;;5011705;28;20403;-52
2021/09/03 00:07:00;;;;;;;19.87;16.83;;;14.80;99.90;;;;;;5011868;28;20460;-51
2021/09/03 00:09:27;;;;;;;25.00;17.70;;;14.80;99.90;;;;;;5010056;28;20464;-51
2021/09/03 00:11:53;;;;;;;21.43;17.23;;;14.80;99.90;;;;;;5011707;28;20932;-51
2021/09/03 00:14:20;;;;;;;19.43;15.47;;;14.80;99.90;;;;;;5012015;28;20781;-51
2021/09/03 00:16:46;;;;;;;26.13;17.27;;;15.10;99.90;;;;;;5011802;28;20840;-51
2021/09/03 00:19:14;;;;;;;18.37;15.00;;;14.70;99.90;;;;;;5010011;28;20456;-51
2021/09/03 00:21:41;;;;;;;20.27;17.50;;;14.70;99.90;;;;;;5011701;28;20447;-51
2021/09/03 00:24:07;;;;;;;22.43;16.60;;;14.50;99.90;;;;;;5013069;28;20439;-52
2021/09/03 00:26:34;;;;;;;20.90;16.20;;;14.70;99.90;;;;;;5015796;28;20424;-51
2021/09/03 00:29:01;;;;;;;27.03;18.00;;;14.70;99.90;;;;;;5014368;28;20483;-51
2021/09/03 00:31:27;;;;;;;22.80;17.60;;;14.80;99.90;;;;;;5015297;28;20451;-51
2021/09/03 00:33:54;;;;;;;21.93;16.00;;;14.70;99.90;;;;;;5015593;28;20836;-51
2021/09/03 00:36:22;;;;;;;23.53;16.43;;;14.60;99.90;;;;;;5015575;28;20483;-51
2021/09/03 00:38:48;;;;;;;20.80;16.23;;;14.50;99.90;;;;;;5015064;28;20459;-51
2021/09/03 00:41:15;;;;;;;20.70;16.30;;;14.90;99.90;;;;;;5015537;28;20800;-51
2021/09/03 00:43:42;;;;;;;23.43;16.63;;;15.00;99.90;;;;;;5015583;28;20489;-52
2021/09/03 00:46:09;;;;;;;23.37;15.57;;;14.60;99.90;;;;;;5015566;28;20439;-51
2021/09/03 00:48:35;;;;;;;21.80;16.10;;;14.50;99.90;;;;;;5014808;28;20470;-51
2021/09/03 00:51:02;;;;;;;21.20;15.47;;;14.60;99.90;;;;;;5015200;28;20447;-51
2021/09/03 00:53:31;;;;;;;21.00;15.40;;;14.60;99.90;;;;;;5015121;28;20899;-50
2021/09/03 00:55:59;;;;;;;19.83;15.67;;;14.60;99.90;;;;;;5015248;28;20443;-51
2021/09/03 00:58:25;;;;;;;19.70;16.00;;;14.60;99.90;;;;;;5014704;28;20966;-51
2021/09/03 01:00:52;;;;;;;27.50;15.80;;;14.50;99.90;;;;;;5015172;28;20411;-51
2021/09/03 01:03:19;;;;;;;24.17;15.67;;;14.40;99.90;;;;;;5015093;28;20746;-50
2021/09/03 01:05:46;;;;;;;21.97;16.80;;;14.50;99.90;;;;;;5015031;28;20422;-51
2021/09/03 01:08:13;;;;;;;23.60;15.43;;;14.70;99.90;;;;;;5014653;28;20454;-51
2021/09/03 01:10:41;;;;;;;22.03;16.37;;;14.60;99.90;;;;;;5015014;28;20432;-51
2021/09/03 01:13:08;;;;;;;21.30;16.10;;;14.80;99.90;;;;;;5014757;28;20439;-52
2021/09/03 01:15:34;;;;;;;26.83;17.57;;;14.40;99.90;;;;;;5014697;28;20438;-51
2021/09/03 01:18:01;;;;;;;17.60;15.80;;;14.40;99.90;;;;;;5014047;28;20993;-51
2021/09/03 01:20:28;;;;;;;22.00;16.77;;;14.40;99.90;;;;;;5014610;28;20448;-51
2021/09/03 01:22:56;;;;;;;25.20;17.70;;;14.20;99.90;;;;;;5014772;28;20447;-51
2021/09/03 01:25:22;;;;;;;18.20;15.30;;;14.00;99.90;;;;;;5014693;28;21113;-51
2021/09/03 01:27:49;;;;;;;24.80;16.87;;;14.40;99.90;;;;;;5013977;28;20435;-50
2021/09/03 01:30:16;;;;;;;22.00;15.60;;;14.40;99.90;;;;;;5015058;28;20444;-52
2021/09/03 01:32:44;;;;;;;24.10;16.63;;;14.40;99.90;;;;;;5014451;28;20440;-51
2021/09/03 01:35:11;;;;;;;23.90;16.77;;;14.40;99.90;;;;;;5013954;28;21076;-51
2021/09/03 01:37:38;;;;;;;21.43;15.70;;;14.70;99.90;;;;;;5014191;28;20546;-52
2021/09/03 01:40:07;;;;;;;22.70;16.50;;;14.70;99.90;;;;;;5014250;28;20462;-51
2021/09/03 01:42:34;;;;;;;25.03;17.77;;;14.40;99.90;;;;;;5014275;28;20436;-52
2021/09/03 01:45:00;;;;;;;22.03;15.57;;;14.20;99.90;;;;;;5014289;28;20433;-51
2021/09/03 01:47:27;;;;;;;20.40;15.10;;;14.30;99.90;;;;;;5014191;28;20440;-52
2021/09/03 01:49:54;;;;;;;19.93;15.20;;;14.40;99.90;;;;;;5013661;28;20531;-51
2021/09/03 01:52:21;;;;;;;19.73;15.97;;;14.60;99.90;;;;;;5014178;28;20881;-51
2021/09/03 01:54:48;;;;;;;23.20;16.50;;;14.10;99.90;;;;;;5014113;28;20530;-52
2021/09/03 01:57:16;;;;;;;24.57;15.80;;;14.30;99.90;;;;;;5014098;28;20478;-52
2021/09/03 01:59:43;;;;;;;24.43;15.87;;;14.30;99.90;;;;;;5013740;28;20459;-52
2021/09/03 02:02:09;;;;;;;23.17;17.20;;;14.20;99.90;;;;;;5013844;28;20455;-52
2021/09/03 02:04:36;;;;;;;17.73;15.07;;;14.20;99.90;;;;;;5013968;28;20750;-52
2021/09/03 02:07:03;;;;;;;21.50;15.20;;;14.60;99.90;;;;;;5014030;28;20505;-51
2021/09/03 02:09:29;;;;;;;23.77;17.47;;;14.30;99.90;;;;;;5013443;28;20457;-51
2021/09/03 02:11:56;;;;;;;22.00;15.93;;;14.20;99.90;;;;;;5012557;28;20452;-51
2021/09/03 02:14:24;;;;;;;23.77;16.17;;;14.20;99.90;;;;;;5013779;28;20490;-51
2021/09/03 02:16:50;;;;;;;26.07;16.63;;;14.30;99.90;;;;;;5013498;28;20478;-52
2021/09/03 02:19:17;;;;;;;25.27;15.57;;;14.40;99.90;;;;;;5013348;28;20460;-52
2021/09/03 02:21:43;;;;;;;24.20;16.53;;;14.20;99.90;;;;;;5013671;28;20857;-51
2021/09/03 02:24:10;;;;;;;19.67;14.63;;;14.60;99.90;;;;;;5013691;28;20806;-52
2021/09/03 02:26:37;;;;;;;21.43;15.50;;;14.20;99.90;;;;;;5013600;28;20443;-51
2021/09/03 02:29:03;;;;;;;25.97;17.97;;;14.10;99.90;;;;;;5012908;28;20468;-52
2021/09/03 02:31:31;;;;;;;28.53;18.17;;;14.40;99.90;;;;;;5013337;28;20450;-51
2021/09/03 02:33:58;;;;;;;21.10;15.87;;;14.10;99.90;;;;;;5013619;28;20435;-52
2021/09/03 02:36:24;;;;;;;28.93;19.23;;;14.00;99.90;;;;;;5013334;28;20439;-52
2021/09/03 02:38:51;;;;;;;26.33;17.60;;;13.90;99.90;;;;;;5012967;28;20468;-52
2021/09/03 02:41:17;;;;;;;24.10;16.50;;;14.20;99.90;;;;;;5013047;28;20428;-52
2021/09/03 02:43:44;;;;;;;27.63;18.50;;;14.20;99.90;;;;;;5013007;28;20502;-51
2021/09/03 02:46:11;;;;;;;20.80;14.70;;;14.10;99.90;;;;;;5012348;28;20435;-52
2021/09/03 02:48:38;;;;;;;18.83;14.43;;;14.20;99.90;;;;;;5012434;28;20459;-52
2021/09/03 02:51:05;;;;;;;25.40;16.77;;;14.20;99.90;;;;;;5012709;28;20409;-52
2021/09/03 02:53:32;;;;;;;17.60;14.73;;;14.20;99.90;;;;;;5013109;28;20448;-51
2021/09/03 02:55:58;;;;;;;26.87;17.33;;;14.20;99.90;;;;;;5013053;28;20928;-51
2021/09/03 02:58:25;;;;;;;20.50;15.70;;;14.20;99.90;;;;;;5012345;28;20897;-52
2021/09/03 03:00:52;;;;;;;23.83;17.60;;;14.20;99.90;;;;;;5012843;28;20829;-51
2021/09/03 03:03:18;;;;;;;28.43;18.13;;;14.20;99.90;;;;;;5012843;28;20435;-51
2021/09/03 03:05:46;;;;;;;21.43;16.40;;;14.00;99.90;;;;;;5012978;28;20435;-51
2021/09/03 03:08:13;;;;;;;21.43;16.27;;;14.20;99.90;;;;;;5012286;28;20860;-51
2021/09/03 03:10:39;;;;;;;22.63;15.70;;;14.20;99.90;;;;;;5012520;28;20439;-52
2021/09/03 03:13:19;;;;;;;27.03;16.87;;;14.10;99.90;;;;;;5012596;28;20794;-51
2021/09/03 03:15:46;;;;;;;28.80;15.90;;;14.30;99.90;;;;;;5012476;28;20493;-51
2021/09/03 03:18:12;;;;;;;23.70;17.83;;;14.20;99.90;;;;;;5012070;28;20988;-51
2021/09/03 03:20:39;;;;;;;20.00;16.23;;;13.70;99.90;;;;;;5012466;28;20443;-50
2021/09/03 03:23:07;;;;;;;23.43;17.20;;;13.80;99.90;;;;;;5012414;28;20451;-51
2021/09/03 03:25:34;;;;;;;27.43;16.27;;;14.20;99.90;;;;;;5012302;28;20440;-51
2021/09/03 03:28:00;;;;;;;24.73;17.53;;;14.20;99.90;;;;;;5011667;28;20854;-51
2021/09/03 03:30:27;;;;;;;23.80;17.00;;;13.90;99.90;;;;;;5012245;28;20440;-51
2021/09/03 03:32:53;;;;;;;25.30;18.83;;;14.40;99.90;;;;;;5012195;28;20442;-50
2021/09/03 03:35:22;;;;;;;24.93;16.63;;;14.20;99.90;;;;;;5012221;28;20779;-51
2021/09/03 03:37:49;;;;;;;25.80;17.40;;;14.00;99.90;;;;;;5011715;28;20480;-52
2021/09/03 03:40:17;;;;;;;27.00;18.17;;;13.90;99.90;;;;;;5011875;28;20796;-52
2021/09/03 03:42:44;;;;;;;20.90;16.90;;;14.20;99.90;;;;;;5012373;28;20820;-52
2021/09/03 03:45:12;;;;;;;28.20;18.63;;;14.10;99.90;;;;;;5011989;28;20792;-51
2021/09/03 03:47:39;;;;;;;27.20;18.90;;;14.00;99.90;;;;;;5011650;28;20440;-52
2021/09/03 03:50:08;;;;;;;24.37;17.90;;;14.10;99.90;;;;;;5011827;28;20455;-51
2021/09/03 03:52:35;;;;;;;26.97;17.83;;;14.20;99.90;;;;;;5011823;28;20458;-51
2021/09/03 03:55:01;;;;;;;26.73;16.90;;;14.50;99.90;;;;;;5011867;28;20435;-51
2021/09/03 03:57:29;;;;;;;21.60;17.40;;;14.40;99.90;;;;;;5011482;28;20995;-51
2021/09/03 03:59:56;;;;;;;31.23;19.33;;;14.10;99.90;;;;;;5011464;28;20518;-51
2021/09/03 04:02:22;;;;;;;27.50;19.20;;;14.40;99.90;;;;;;5011925;28;20438;-52
2021/09/03 04:04:49;;;;;;;27.73;18.17;;;14.10;99.90;;;;;;5011781;28;20444;-51
2021/09/03 04:07:15;;;;;;;24.63;17.70;;;14.20;99.90;;;;;;5011714;28;20432;-51
2021/09/03 04:09:42;;;;;;;26.10;16.50;;;14.30;99.90;;;;;;5011419;28;20793;-50
2021/09/03 04:12:09;;;;;;;23.70;17.30;;;14.20;99.90;;;;;;5011408;28;20432;-51
2021/09/03 04:14:37;;;;;;;21.23;14.70;;;14.40;99.90;;;;;;5011754;28;20438;-51
2021/09/03 04:17:04;;;;;;;26.07;18.07;;;13.80;99.90;;;;;;5011685;28;20439;-51
2021/09/03 04:19:31;;;;;;;23.97;16.20;;;14.30;99.90;;;;;;5011110;28;20454;-52
2021/09/03 04:21:57;;;;;;;24.77;17.87;;;14.30;99.90;;;;;;5011444;28;20442;-52
2021/09/03 04:24:24;;;;;;;24.87;17.73;;;14.30;99.90;;;;;;5011623;28;20614;-52
2021/09/03 04:26:51;;;;;;;29.87;17.33;;;14.30;99.90;;;;;;5011420;28;20435;-51
2021/09/03 04:29:17;;;;;;;23.40;15.60;;;14.30;99.90;;;;;;5010922;28;20528;-51
2021/09/03 04:31:45;;;;;;;30.70;19.20;;;14.30;99.90;;;;;;5011381;28;20539;-51
2021/09/03 04:34:12;;;;;;;22.60;16.40;;;14.30;99.90;;;;;;5012099;28;20446;-51
2021/09/03 04:36:38;;;;;;;23.60;16.33;;;14.60;99.90;;;;;;5011393;28;20446;-51
2021/09/03 04:39:05;;;;;;;23.30;17.30;;;14.60;99.90;;;;;;5010916;28;20553;-51
2021/09/03 04:41:31;;;;;;;23.53;17.43;;;14.30;99.90;;;;;;5011174;28;20923;-51
2021/09/03 04:43:58;;;;;;;26.30;18.17;;;14.30;99.90;;;;;;5011257;28;20430;-51
2021/09/03 04:46:24;;;;;;;24.17;17.53;;;14.60;99.90;;;;;;5011851;28;20437;-51
2021/09/03 04:48:53;;;;;;;27.37;18.67;;;14.50;99.90;;;;;;5009248;28;20570;-51
2021/09/03 04:51:19;;;;;;;23.73;17.10;;;14.60;99.90;;;;;;5011013;28;20436;-51
2021/09/03 04:53:46;;;;;;;24.07;18.10;;;14.40;99.90;;;;;;5010865;28;20443;-51
2021/09/03 04:56:13;;;;;;;21.53;16.03;;;14.40;99.90;;;;;;5010667;28;20440;-51
2021/09/03 04:58:39;;;;;;;26.70;17.03;;;14.40;99.90;;;;;;5010498;28;20463;-51
2021/09/03 05:01:06;;;;;;;24.07;18.83;;;14.40;99.90;;;;;;5011064;28;20435;-51
2021/09/03 05:03:33;;;;;;;27.97;17.87;;;14.40;99.90;;;;;;5011034;28;20443;-51
2021/09/03 05:06:01;;;;;;;28.87;17.83;;;14.50;99.90;;;;;;5011049;28;20450;-51
2021/09/03 05:08:27;;;;;;;25.30;18.20;;;14.50;99.90;;;;;;5010140;28;20432;-51
2021/09/03 05:10:54;;;;;;;30.07;19.33;;;14.50;99.90;;;;;;5012996;28;20499;-51
2021/09/03 05:13:20;;;;;;;24.07;17.80;;;14.60;99.90;;;;;;5014594;28;20849;-51
2021/09/03 05:15:47;;;;;;;23.63;17.60;;;14.60;99.90;;;;;;5014271;28;20449;-51
2021/09/03 05:18:14;;;;;;;23.40;17.43;;;14.50;99.90;;;;;;5013624;28;21012;-51
2021/09/03 05:20:41;;;;;;;26.73;17.97;;;14.30;99.90;;;;;;5014102;28;20928;-51
2021/09/03 05:23:09;;;;;;;26.90;18.60;;;14.70;99.90;;;;;;5014243;28;20506;-50
2021/09/03 05:25:36;;;;;;;22.37;18.10;;;14.90;99.90;;;;;;5013890;28;20484;-50
2021/09/03 05:28:02;;;;;;;21.33;16.70;;;14.60;99.90;;;;;;5012655;28;20540;-52
2021/09/03 05:30:30;;;;;;;29.83;18.30;;;14.80;99.90;;;;;;5013878;28;20653;-52
2021/09/03 05:32:57;;;;;;;28.33;18.37;;;14.90;99.90;;;;;;5013682;28;20438;-52
2021/09/03 05:35:27;;;;;;;22.97;16.03;;;14.50;99.90;;;;;;5012385;28;20444;-52
2021/09/03 05:37:53;;;;;;;21.23;17.17;;;15.10;99.90;;;;;;5012782;28;20948;-52
2021/09/03 05:40:22;;;;;;;24.90;16.63;;;15.20;99.90;;;;;;5013747;28;20459;-52
2021/09/03 05:42:49;;;;;;;22.83;17.17;;;15.30;99.90;;;;;;5012892;28;20490;-52
2021/09/03 05:45:16;;;;;;;25.83;19.17;;;15.10;99.90;;;;;;5012706;28;20418;-51
2021/09/03 05:47:43;;;;;;;20.83;15.80;;;15.40;99.90;;;;;;5012317;28;20442;-52
2021/09/03 05:50:11;;;;;;;21.80;16.23;;;15.60;99.90;;;;;;5013284;28;20429;-53
2021/09/03 05:52:38;;;;;;;22.37;16.50;;;15.70;99.90;;;;;;5011794;28;20461;-52
2021/09/03 05:55:06;;;;;;;23.97;18.47;;;16.10;99.90;;;;;;5012609;28;20523;-52
2021/09/03 05:57:34;;;;;;;27.97;17.27;;;15.90;99.90;;;;;;5012887;28;20432;-52
2021/09/03 06:00:01;;;;;;;27.80;16.87;;;15.90;99.90;;;;;;5012640;28;20427;-52
2021/09/03 06:02:28;;;;;;;22.80;18.60;;;16.00;99.90;;;;;;5012827;28;20807;-52
2021/09/03 06:04:54;;;;;;;19.63;15.80;;;16.10;99.90;;;;;;5012885;28;20435;-50
2021/09/03 06:07:21;;;;;;;20.90;17.97;;;16.20;99.90;;;;;;5013041;28;20441;-51
2021/09/03 06:09:47;;;;;;;20.40;17.40;;;16.20;99.90;;;;;;5012441;28;20428;-52
2021/09/03 06:12:14;;;;;;;25.80;16.87;;;16.30;99.90;;;;;;5012341;28;20442;-51
2021/09/03 06:14:42;;;;;;;28.50;17.30;;;16.40;99.90;;;;;;5012815;28;20429;-51
2021/09/03 06:17:24;;;;;;;20.50;18.10;;;16.40;99.90;;;;;;5012864;28;20456;-51
2021/09/03 06:19:50;;;;;;;24.00;17.07;;;16.50;99.90;;;;;;5012860;28;20488;-51
2021/09/03 06:22:17;;;;;;;21.27;17.03;;;16.60;99.90;;;;;;5011666;28;20433;-51
2021/09/03 06:24:44;;;;;;;21.20;18.43;;;16.60;99.90;;;;;;5012793;28;20436;-51
2021/09/03 06:27:11;;;;;;;23.33;18.80;;;16.70;99.90;;;;;;5012847;28;20441;-52
2021/09/03 06:29:40;;;;;;;25.83;18.90;;;16.80;99.90;;;;;;5012042;28;20547;-51
2021/09/03 06:32:10;;;;;;;25.97;17.43;;;16.80;99.90;;;;;;5013178;28;20778;-51
2021/09/03 06:34:40;;;;;;;27.60;18.40;;;16.80;99.90;;;;;;5010761;28;20483;-52
2021/09/03 06:37:07;;;;;;;24.37;18.97;;;16.90;99.90;;;;;;5012551;28;20563;-51
2021/09/03 06:39:34;;;;;;;21.10;17.60;;;16.90;99.90;;;;;;5012273;28;20503;-51
2021/09/03 06:42:01;;;;;;;20.53;18.33;;;16.90;99.90;;;;;;5012741;28;20429;-51
2021/09/03 06:44:28;;;;;;;25.40;19.23;;;17.00;99.90;;;;;;5012886;28;20918;-52
2021/09/03 06:46:55;;;;;;;24.80;19.57;;;16.90;99.90;;;;;;5013098;28;20439;-51
2021/09/03 06:49:23;;;;;;;25.87;19.90;;;17.00;99.90;;;;;;5012251;28;20471;-53
2021/09/03 06:51:50;;;;;;;26.60;18.83;;;17.10;99.90;;;;;;5012565;28;20448;-52
2021/09/03 06:54:17;;;;;;;22.63;18.63;;;17.10;99.90;;;;;;5012590;28;20451;-53
2021/09/03 06:56:44;;;;;;;24.47;18.27;;;17.10;99.90;;;;;;5011897;28;20779;-52
2021/09/03 06:59:11;;;;;;;20.93;17.40;;;17.10;99.90;;;;;;5011122;28;20501;-52
2021/09/03 07:01:37;;;;;;;21.07;17.00;;;17.10;99.90;;;;;;5012321;28;20444;-52
2021/09/03 07:04:04;;;;;;;21.37;18.83;;;17.20;99.90;;;;;;5011704;28;20960;-51
2021/09/03 07:06:32;;;;;;;19.87;17.73;;;17.20;99.90;;;;;;5011885;28;20445;-52
2021/09/03 07:08:59;;;;;;;20.60;17.70;;;17.20;99.90;;;;;;5012007;28;20548;-52
2021/09/03 07:11:26;;;;;;;30.77;18.30;;;17.20;99.90;;;;;;5012084;28;20433;-52
2021/09/03 07:13:52;;;;;;;21.73;17.00;;;17.20;99.90;;;;;;5011800;28;20446;-52
2021/09/03 07:16:19;;;;;;;20.70;17.40;;;17.30;99.90;;;;;;5012111;28;20432;-52
2021/09/03 07:18:46;;;;;;;25.50;17.40;;;17.30;99.90;;;;;;5011550;28;20480;-53
2021/09/03 07:21:12;;;;;;;22.40;17.50;;;17.30;99.90;;;;;;5011797;28;20428;-52
2021/09/03 07:23:40;;;;;;;20.77;18.57;;;17.40;99.90;;;;;;5012012;28;20434;-52
2021/09/03 07:26:07;;;;;;;23.50;16.60;;;17.40;99.90;;;;;;5011915;28;20433;-50
2021/09/03 07:28:34;;;;;;;23.03;16.53;;;17.40;99.90;;;;;;5011165;28;20469;-51
2021/09/03 07:31:00;;;;;;;22.00;17.60;;;17.50;99.90;;;;;;5012207;28;20767;-51
2021/09/03 07:33:27;;;;;;;25.27;16.73;;;17.50;99.90;;;;;;5010968;28;20462;-50
2021/09/03 07:35:54;;;;;;;24.87;16.77;;;17.50;99.90;;;;;;5011954;28;20755;-50
2021/09/03 07:38:21;;;;;;;19.37;14.60;;;17.50;99.90;;;;;;5011229;28;20489;-53
2021/09/03 07:40:50;;;;;;;19.83;15.20;;;17.50;99.90;;;;;;5011417;28;20443;-51
2021/09/03 07:43:16;;;;;;;17.60;14.93;;;17.60;99.90;;;;;;5012141;28;20438;-53
2021/09/03 07:45:43;;;;;;;24.93;17.40;;;17.60;99.90;;;;;;5012361;28;20972;-52
2021/09/03 07:48:10;;;;;;;26.50;15.83;;;17.60;99.90;;;;;;5011163;28;20516;-52
2021/09/03 07:50:37;;;;;;;15.40;13.10;;;17.60;99.90;;;;;;5011727;28;20457;-53
2021/09/03 07:53:05;;;;;;;19.73;15.00;;;17.70;99.90;;;;;;5011647;28;20478;-52
2021/09/03 07:55:32;;;;;;;18.37;14.50;;;17.70;99.90;;;;;;5011392;28;20438;-52
2021/09/03 07:58:01;;;;;;;20.47;14.27;;;17.70;99.90;;;;;;5011286;28;20519;-52
2021/09/03 08:00:28;;;;;;;16.87;13.60;;;17.70;99.90;;;;;;5011293;28;20480;-52
2021/09/03 08:02:54;;;;;;;19.00;14.30;;;17.70;99.90;;;;;;5011688;28;20434;-52
2021/09/03 08:05:21;;;;;;;20.97;14.10;;;17.80;99.90;;;;;;5012143;28;20462;-52
2021/09/03 08:07:48;;;;;;;20.00;14.07;;;17.80;99.90;;;;;;5011367;28;20458;-52
2021/09/03 08:10:17;;;;;;;18.27;13.93;;;17.90;99.90;;;;;;5011520;28;20935;-52
2021/09/03 08:12:44;;;;;;;18.40;13.43;;;17.90;99.90;;;;;;5011660;28;20435;-52
2021/09/03 08:15:13;;;;;;;18.73;14.70;;;18.00;99.90;;;;;;5011681;28;20445;-52
2021/09/03 08:17:40;;;;;;;22.33;13.60;;;18.10;99.90;;;;;;5011293;28;20412;-53
2021/09/03 08:20:09;;;;;;;17.80;14.60;;;18.20;99.90;;;;;;5011352;28;20988;-53
2021/09/03 08:22:36;;;;;;;19.40;14.10;;;18.10;99.90;;;;;;5011104;28;20455;-52
2021/09/03 08:25:04;;;;;;;25.10;13.80;;;18.40;99.90;;;;;;5011346;28;20549;-52
2021/09/03 08:27:30;;;;;;;22.03;13.70;;;18.20;99.90;;;;;;5010649;28;20442;-52
2021/09/03 08:29:57;;;;;;;17.60;13.47;;;18.30;99.90;;;;;;5010357;28;20467;-52
2021/09/03 08:32:25;;;;;;;16.60;14.30;;;18.30;99.90;;;;;;5010975;28;20932;-52
2021/09/03 08:34:52;;;;;;;21.00;13.53;;;18.40;99.90;;;;;;5011545;28;20447;-53
2021/09/03 08:37:19;;;;;;;24.80;14.07;;;18.40;99.90;;;;;;5011426;28;20449;-53
2021/09/03 08:39:45;;;;;;;20.17;15.53;;;18.40;99.90;;;;;;5011370;28;20476;-52
2021/09/03 08:42:14;;;;;;;21.60;13.80;;;18.40;99.90;;;;;;5011187;28;20431;-52
2021/09/03 08:44:41;;;;;;;20.60;13.97;;;18.50;99.90;;;;;;5011640;28;20411;-52
2021/09/03 08:47:10;;;;;;;19.87;14.67;;;18.50;99.90;;;;;;5014688;28;20435;-51
2021/09/03 08:49:38;;;;;;;18.73;13.40;;;18.60;99.90;;;;;;5014135;28;20463;-51
2021/09/03 08:52:05;;;;;;;15.53;13.10;;;18.70;99.90;;;;;;5014505;28;20435;-52
2021/09/03 08:54:32;;;;;;;18.70;13.67;;;18.30;99.90;;;;;;5015042;28;20414;-52
2021/09/03 08:56:58;;;;;;;19.17;14.00;;;18.70;99.90;;;;;;5014321;28;20817;-51
2021/09/03 08:59:25;;;;;;;20.67;14.10;;;18.80;99.90;;;;;;5014101;28;20494;-52
2021/09/03 09:02:10;;;;;;;21.13;15.07;;;18.70;99.90;;;;;;5014941;28;20440;-52
2021/09/03 09:04:39;;;;;;;18.67;15.33;;;18.80;99.90;;;;;;5014357;28;20435;-52
2021/09/03 09:07:06;;;;;;;19.97;14.70;;;18.80;99.90;;;;;;5014038;28;20443;-51
2021/09/03 09:09:34;;;;;;;23.40;14.40;;;18.80;99.90;;;;;;5014015;28;20452;-52
2021/09/03 09:12:06;;;;;;;20.73;14.20;;;18.90;99.90;;;;;;5014351;28;20572;-51
2021/09/03 09:15:05;;;;;;;21.73;13.70;;;18.90;99.90;;;;;;5014252;28;20523;-52
2021/09/03 09:17:33;;;;;;;18.50;12.07;;;18.90;99.90;;;;;;5014183;28;20784;-52
2021/09/03 09:20:03;;;;;;;18.50;12.53;;;18.90;99.90;;;;;;5014233;28;20518;-52
2021/09/03 09:22:51;;;;;;;20.53;12.10;;;19.00;99.90;;;;;;5014545;28;20535;-52
2021/09/03 09:25:21;;;;;;;18.40;13.80;;;19.10;99.90;;;;;;5014561;28;20999;-52
2021/09/03 09:27:49;;;;;;;18.97;13.97;;;19.10;99.90;;;;;;5013566;28;20428;-51
2021/09/03 09:30:22;;;;;;;19.67;14.67;;;19.10;99.90;;;;;;5013954;28;20795;-51
2021/09/03 09:33:12;;;;;;;22.07;13.93;;;19.10;99.90;;;;;;5013889;28;20443;-51
2021/09/03 09:35:45;;;;;;;17.27;13.97;;;19.20;99.90;;;;;;5014298;28;20485;-52
2021/09/03 09:38:13;;;;;;;25.27;15.83;;;19.20;99.90;;;;;;5012495;28;20616;-52
2021/09/03 09:40:44;;;;;;;24.90;13.77;;;19.20;99.90;;;;;;5013680;28;20483;-52
2021/09/03 09:43:33;;;;;;;16.10;12.57;;;19.20;99.90;;;;;;5013761;28;20444;-52
2021/09/03 09:46:15;;;;;;;19.20;13.30;;;19.30;99.90;;;;;;5013874;28;20519;-52
2021/09/03 09:49:04;;;;;;;13.83;12.43;;;19.30;99.90;;;;;;5013821;28;20456;-52
2021/09/03 09:51:34;;;;;;;17.23;13.40;;;19.40;99.90;;;;;;5013829;28;20450;-52
2021/09/03 09:54:03;;;;;;;17.07;12.77;;;19.40;99.90;;;;;;5014150;28;20432;-51
2021/09/03 09:56:32;;;;;;;19.60;13.40;;;19.40;99.90;;;;;;5014242;28;20884;-52
2021/09/03 09:59:00;;;;;;;15.80;12.20;;;19.40;99.90;;;;;;5013125;28;20510;-52
2021/09/03 10:01:28;;;;;;;14.43;11.10;;;19.50;99.90;;;;;;5013367;28;20967;-52
2021/09/03 10:03:55;;;;;;;21.50;12.93;;;19.60;99.90;;;;;;5013726;28;20440;-52
2021/09/03 10:06:23;;;;;;;17.77;12.37;;;19.60;99.90;;;;;;5012203;28;20543;-52
2021/09/03 10:08:52;;;;;;;14.23;11.47;;;19.70;99.90;;;;;;5013161;28;20464;-52
2021/09/03 10:11:20;;;;;;;14.37;12.30;;;19.70;99.90;;;;;;5013408;28;20455;-52
2021/09/03 10:13:48;;;;;;;15.07;10.97;;;19.80;99.90;;;;;;5013776;28;20440;-52
2021/09/03 10:16:15;;;;;;;17.60;12.17;;;19.80;99.90;;;;;;5011893;28;20456;-52
2021/09/03 10:18:44;;;;;;;15.43;11.70;;;19.80;99.90;;;;;;5012517;28;20858;-52
2021/09/03 10:21:12;;;;;;;18.17;11.67;;;19.90;99.90;;;;;;5012666;28;20479;-51
2021/09/03 10:23:49;;;;;;;18.80;12.40;;;19.90;99.90;;;;;;5012496;28;20478;-52
2021/09/03 10:26:19;;;;;;;11.63;9.90;;;20.00;99.90;;;;;;5013649;28;20447;-52
2021/09/03 10:28:46;;;;;;;13.37;11.50;;;20.00;99.90;;;;;;5012800;28;20464;-52
2021/09/03 10:31:18;;;;;;;12.77;9.93;;;20.00;99.90;;;;;;5012529;28;20432;-51
2021/09/03 10:33:46;;;;;;;18.03;10.77;;;20.10;99.90;;;;;;5012489;28;20460;-51
2021/09/03 10:36:13;;;;;;;12.27;10.97;;;20.10;99.90;;;;;;5012873;28;20484;-52
2021/09/03 10:38:44;;;;;;;12.10;10.00;;;20.20;99.90;;;;;;5012247;28;20460;-52
2021/09/03 10:41:53;;;;;;;12.77;9.60;;;20.20;99.90;;;;;;5012710;28;20581;-52
2021/09/03 10:44:20;;;;;;;16.77;11.40;;;20.30;99.90;;;;;;5008127;28;20473;-52
2021/09/03 10:46:48;;;;;;;13.23;11.50;;;20.30;99.90;;;;;;5012729;28;20438;-52
2021/09/03 10:49:16;;;;;;;13.43;10.40;;;20.30;99.90;;;;;;5012054;28;20555;-51
2021/09/03 10:51:50;;;;;;;14.73;11.23;;;20.30;99.90;;;;;;5012730;28;20439;-52
2021/09/03 10:54:18;;;;;;;14.90;10.10;;;20.40;99.90;;;;;;5012314;28;20432;-52
2021/09/03 10:56:55;;;;;;;12.30;10.70;;;20.40;99.90;;;;;;5012633;28;20437;-52
2021/09/03 10:59:24;;;;;;;16.13;10.60;;;20.40;99.90;;;;;;5011952;28;20648;-52
2021/09/03 11:01:53;;;;;;;15.00;11.30;;;20.40;99.90;;;;;;5011877;28;20442;-52
2021/09/03 11:04:23;;;;;;;16.70;11.47;;;20.50;99.90;;;;;;5012245;28;20944;-52
2021/09/03 11:07:07;;;;;;;17.27;11.83;;;20.50;99.90;;;;;;5011834;28;20876;-52
2021/09/03 11:09:34;;;;;;;13.83;9.57;;;20.60;99.90;;;;;;5011767;28;20985;-52
2021/09/03 11:12:07;;;;;;;13.30;10.93;;;20.60;99.90;;;;;;5011728;28;20528;-52
2021/09/03 11:14:35;;;;;;;15.73;10.80;;;20.60;99.90;;;;;;5011965;28;20507;-52
2021/09/03 11:17:03;;;;;;;13.27;11.70;;;20.70;99.90;;;;;;5011802;28;20947;-51
2021/09/03 11:19:32;;;;;;;12.80;10.13;;;20.70;99.90;;;;;;5011069;28;20458;-52
2021/09/03 11:22:01;;;;;;;14.97;12.37;;;20.70;99.90;;;;;;5011985;28;20469;-53
2021/09/03 11:24:29;;;;;;;13.10;10.93;;;20.70;99.90;;;;;;5011435;28;20493;-53
2021/09/03 11:26:57;;;;;;;13.37;11.13;;;20.80;99.90;;;;;;5011543;28;20438;-52
2021/09/03 11:29:26;;;;;;;11.33;10.13;;;20.80;99.90;;;;;;5011227;28;20913;-52
2021/09/03 11:32:00;;;;;;;14.83;8.93;;;20.80;99.90;;;;;;5011482;28;20781;-53
2021/09/03 11:34:54;;;;;;;11.43;9.00;;;20.90;99.90;;;;;;5011473;28;20913;-52
2021/09/03 11:37:30;;;;;;;14.13;10.00;;;20.90;99.90;;;;;;5010838;28;20429;-53
2021/09/03 11:40:02;;;;;;;10.73;9.63;;;20.90;99.90;;;;;;5010710;28;20493;-52
2021/09/03 11:42:31;;;;;;;12.30;9.93;;;20.90;99.90;;;;;;5011133;28;20434;-52
2021/09/03 11:45:01;;;;;;;12.13;9.30;;;21.00;99.90;;;;;;5010868;28;20907;-53
2021/09/03 11:47:35;;;;;;;12.97;9.63;;;21.00;99.90;;;;;;5011159;28;20487;-52
2021/09/03 11:50:04;;;;;;;11.70;10.40;;;21.00;99.90;;;;;;5010406;28;20449;-53
2021/09/03 11:52:32;;;;;;;16.20;10.77;;;21.10;99.90;;;;;;5010739;28;20435;-53
2021/09/03 11:55:01;;;;;;;13.87;9.57;;;21.10;99.90;;;;;;5010929;28;20534;-53
2021/09/03 11:57:28;;;;;;;11.20;10.10;;;21.10;99.90;;;;;;5011423;28;20437;-53
2021/09/03 11:59:57;;;;;;;11.40;9.60;;;21.20;99.90;;;;;;5010627;28;20586;-53
2021/09/03 12:02:26;;;;;;;12.90;9.60;;;21.20;99.90;;;;;;5009547;28;20447;-53
2021/09/03 12:04:55;;;;;;;10.53;8.57;;;21.20;99.90;;;;;;5011552;28;20964;-53
2021/09/03 12:07:23;;;;;;;9.37;7.67;;;21.20;99.90;;;;;;5010628;28;20431;-53
2021/09/03 12:09:55;;;;;;;11.27;8.33;;;21.30;99.90;;;;;;5010458;28;20450;-53
2021/09/03 12:12:30;;;;;;;12.43;8.83;;;21.30;99.90;;;;;;5011078;28;20543;-53
2021/09/03 12:14:59;;;;;;;9.30;8.00;;;21.40;99.90;;;;;;5009636;28;20500;-53
2021/09/03 12:17:37;;;;;;;8.90;8.00;;;21.40;99.90;;;;;;5010926;28;20481;-53
2021/09/03 12:20:15;;;;;;;9.77;8.57;;;21.40;99.90;;;;;;5013606;28;20540;-54
2021/09/03 12:22:53;;;;;;;12.07;9.47;;;21.50;99.90;;;;;;5014923;28;20435;-53
2021/09/03 12:25:29;;;;;;;12.30;9.20;;;21.50;99.90;;;;;;5014913;28;20445;-52
2021/09/03 12:28:09;;;;;;;10.33;9.30;;;21.50;99.90;;;;;;5014320;28;20457;-52
2021/09/03 12:30:36;;;;;;;11.83;9.40;;;21.50;99.90;;;;;;5015334;28;20427;-53
2021/09/03 12:33:23;;;;;;;10.73;8.77;;;21.50;99.90;;;;;;5014801;28;20480;-53
2021/09/03 12:35:53;;;;;;;12.90;8.63;;;21.60;99.90;;;;;;5014718;28;20419;-51